createdAt,value
2018-01-15T00:02:25.423Z,72.53
2018-01-15T00:04:53.265Z,73.40
2018-01-15T00:07:21.082Z,61.30
2018-01-15T00:09:48.918Z,81.30
2018-01-15T00:12:16.767Z,67.53
2018-01-15T00:17:37.313Z,67.82
2018-01-15T00:20:05.142Z,67.70
2018-01-15T00:22:32.978Z,76.78
2018-01-15T00:25:00.826Z,74.62
2018-01-15T00:27:28.643Z,66.50
2018-01-15T00:29:56.460Z,71.12
2018-01-15T00:32:24.283Z,74.90
2018-01-15T00:34:52.088Z,67.82
2018-01-15T00:37:19.940Z,70.65
2018-01-15T00:39:47.778Z,77.68
2018-01-15T00:42:15.595Z,68.32
2018-01-15T00:44:43.422Z,67.82
2018-01-15T00:47:11.226Z,86.03
2018-01-15T00:49:39.059Z,78.75
2018-01-15T00:52:06.897Z,82.07
2018-01-15T00:54:34.731Z,72.40
2018-01-15T00:57:02.555Z,73.35
2018-01-15T00:59:30.363Z,77.72
2018-01-15T01:01:58.204Z,75.62
2018-01-15T01:04:26.007Z,79.75
2018-01-15T01:06:53.830Z,87.28
2018-01-15T01:09:28.054Z,82.88
2018-01-15T01:11:55.922Z,78.78
2018-01-15T01:14:23.765Z,80.50
2018-01-15T01:16:51.588Z,73.43
2018-01-15T01:19:19.430Z,78.62
2018-01-15T01:21:47.289Z,78.93
2018-01-15T01:24:15.120Z,81.70
2018-01-15T01:26:42.965Z,73.12
2018-01-15T01:29:10.779Z,80.65
2018-01-15T01:31:38.592Z,69.65
2018-01-15T01:34:06.412Z,61.78
2018-01-15T01:36:34.230Z,81.60
2018-01-15T01:39:02.096Z,74.55
2018-01-15T01:41:29.928Z,71.25
2018-01-15T01:43:57.755Z,70.62
2018-01-15T01:46:25.553Z,87.78
2018-01-15T01:48:57.227Z,62.97
2018-01-15T01:51:25.062Z,75.62
2018-01-15T01:53:52.888Z,78.15
2018-01-15T01:56:20.678Z,77.40
2018-01-15T01:58:48.486Z,94.78
2018-01-15T02:01:16.287Z,67.82
2018-01-15T02:03:44.121Z,72.05
2018-01-15T02:06:11.948Z,74.22
2018-01-15T02:08:39.759Z,77.68
2018-01-15T02:11:07.595Z,91.57
2018-01-15T02:13:35.406Z,77.93
2018-01-15T02:16:03.231Z,75.12
2018-01-15T02:18:31.031Z,76.60
2018-01-15T02:20:58.847Z,76.03
2018-01-15T02:23:26.670Z,78.10
2018-01-15T02:25:54.501Z,74.65
2018-01-15T02:28:22.351Z,75.35
2018-01-15T02:30:50.168Z,78.80
2018-01-15T02:33:18.001Z,80.18
2018-01-15T02:35:45.833Z,84.18
2018-01-15T02:38:13.657Z,87.28
2018-01-15T02:40:41.475Z,83.93
2018-01-15T02:43:09.301Z,80.18
2018-01-15T02:45:37.122Z,82.85
2018-01-15T02:48:04.953Z,70.60
2018-01-15T02:50:32.804Z,78.75
2018-01-15T02:53:00.638Z,76.50
2018-01-15T02:55:28.468Z,76.85
2018-01-15T02:57:56.290Z,69.93
2018-01-15T03:00:24.113Z,71.57
2018-01-15T03:02:51.969Z,66.40
2018-01-15T03:05:19.819Z,70.90
2018-01-15T03:07:47.847Z,70.53
2018-01-15T03:10:15.664Z,80.05
2018-01-15T03:12:43.532Z,68.72
2018-01-15T03:15:11.343Z,79.53
2018-01-15T03:17:39.175Z,71.68
2018-01-15T03:20:06.986Z,85.82
2018-01-15T03:22:34.824Z,72.62
2018-01-15T03:25:02.652Z,66.32
2018-01-15T03:27:30.478Z,83.85
2018-01-15T03:29:58.303Z,67.95
2018-01-15T03:32:26.137Z,87.85
2018-01-15T03:34:53.940Z,77.97
2018-01-15T03:37:21.911Z,83.85
2018-01-15T03:39:49.719Z,82.95
2018-01-15T03:42:17.557Z,82.37
2018-01-15T03:44:45.377Z,90.22
2018-01-15T03:47:13.196Z,80.30
2018-01-15T03:49:41.025Z,92.25
2018-01-15T03:52:08.851Z,79.70
2018-01-15T03:54:36.657Z,78.40
2018-01-15T03:57:04.480Z,75.80
2018-01-15T03:59:32.301Z,81.80
2018-01-15T04:02:00.154Z,77.93
2018-01-15T04:04:27.975Z,72.28
2018-01-15T04:06:55.843Z,70.97
2018-01-15T04:09:23.661Z,82.47
2018-01-15T04:11:51.471Z,77.60
2018-01-15T04:14:19.315Z,89.15
2018-01-15T04:16:47.146Z,89.03
2018-01-15T04:19:14.980Z,82.20
2018-01-15T04:24:26.383Z,82.72
2018-01-15T04:26:54.203Z,83.15
2018-01-15T04:29:22.041Z,88.07
2018-01-15T04:31:49.865Z,76.10
2018-01-15T04:34:17.707Z,86.80
2018-01-15T04:36:45.521Z,77.12
2018-01-15T04:39:13.338Z,92.28
2018-01-15T04:41:41.173Z,91.68
2018-01-15T04:44:08.994Z,82.70
2018-01-15T04:46:36.815Z,83.40
2018-01-15T04:49:04.725Z,82.40
2018-01-15T04:51:32.560Z,76.97
2018-01-15T04:54:00.400Z,85.18
2018-01-15T04:56:28.267Z,83.62
2018-01-15T04:58:56.108Z,78.72
2018-01-15T05:01:23.940Z,79.62
2018-01-15T05:03:51.790Z,82.90
2018-01-15T05:06:19.628Z,84.80
2018-01-15T05:08:47.465Z,79.80
2018-01-15T05:11:15.294Z,85.10
2018-01-15T05:13:43.100Z,79.75
2018-01-15T05:16:10.945Z,70.68
2018-01-15T05:18:38.775Z,76.62
2018-01-15T05:21:06.579Z,78.05
2018-01-15T05:23:34.400Z,74.43
2018-01-15T05:26:02.243Z,78.12
2018-01-15T05:28:30.063Z,82.85
2018-01-15T05:30:57.888Z,83.18
2018-01-15T05:33:25.720Z,75.60
2018-01-15T05:35:53.544Z,75.00
2018-01-15T05:38:21.379Z,75.57
2018-01-15T05:40:49.245Z,74.25
2018-01-15T05:43:17.096Z,78.75
2018-01-15T05:45:44.948Z,68.70
2018-01-15T05:48:12.789Z,79.57
2018-01-15T05:50:40.599Z,93.40
2018-01-15T05:53:08.420Z,74.70
2018-01-15T05:55:36.255Z,74.85
2018-01-15T05:58:04.076Z,89.22
2018-01-15T06:00:31.969Z,72.57
2018-01-15T06:02:59.841Z,92.55
2018-01-15T06:05:27.655Z,79.62
2018-01-15T06:07:55.479Z,88.30
2018-01-15T06:10:23.280Z,72.65
2018-01-15T06:12:51.103Z,70.50
2018-01-15T06:15:18.903Z,84.07
2018-01-15T06:17:46.752Z,75.32
2018-01-15T06:20:14.577Z,79.05
2018-01-15T06:22:42.411Z,74.10
2018-01-15T06:25:10.250Z,74.07
2018-01-15T06:27:38.148Z,82.60
2018-01-15T06:30:05.980Z,78.80
2018-01-15T06:32:33.784Z,73.75
2018-01-15T06:35:01.632Z,78.60
2018-01-15T06:37:29.495Z,74.20
2018-01-15T06:39:57.351Z,72.57
2018-01-15T06:42:25.199Z,75.18
2018-01-15T06:44:53.033Z,73.15
2018-01-15T06:47:20.855Z,68.20
2018-01-15T06:49:48.938Z,79.78
2018-01-15T06:52:16.851Z,69.18
2018-01-15T06:54:44.707Z,55.65
2018-01-15T06:57:12.597Z,73.70
2018-01-15T06:59:40.431Z,70.43
2018-01-15T07:02:08.250Z,75.30
2018-01-15T07:04:36.211Z,69.85
2018-01-15T07:07:04.042Z,77.10
2018-01-15T07:09:31.917Z,71.97
2018-01-15T07:11:59.737Z,59.47
2018-01-15T07:14:27.565Z,64.18
2018-01-15T07:16:55.411Z,66.80
2018-01-15T07:19:23.272Z,63.40
2018-01-15T07:21:51.103Z,63.53
2018-01-15T07:24:18.929Z,51.15
2018-01-15T07:26:46.756Z,63.30
2018-01-15T07:29:14.572Z,76.62
2018-01-15T07:31:42.463Z,55.08
2018-01-15T07:34:10.296Z,62.17
2018-01-15T07:36:38.120Z,62.55
2018-01-15T07:39:05.956Z,66.85
2018-01-15T07:41:33.788Z,67.97
2018-01-15T07:44:01.631Z,66.18
2018-01-15T07:46:29.469Z,55.20
2018-01-15T07:48:57.450Z,57.15
2018-01-15T07:51:25.256Z,70.60
2018-01-15T07:53:53.113Z,61.40
2018-01-15T07:56:20.943Z,57.75
2018-01-15T07:58:48.799Z,59.13
2018-01-15T08:01:16.610Z,53.72
2018-01-15T08:03:44.442Z,63.08
2018-01-15T08:06:12.308Z,43.25
2018-01-15T08:08:40.140Z,58.55
2018-01-15T08:11:07.964Z,59.53
2018-01-15T08:13:35.813Z,47.20
2018-01-15T08:16:03.670Z,46.25
2018-01-15T08:18:31.507Z,54.42
2018-01-15T08:20:59.455Z,57.45
2018-01-15T08:23:27.330Z,54.38
2018-01-15T08:25:55.151Z,56.22
2018-01-15T08:28:22.961Z,47.65
2018-01-15T08:30:50.767Z,54.83
2018-01-15T08:33:18.601Z,58.75
2018-01-15T08:35:46.429Z,55.28
2018-01-15T08:38:14.260Z,55.63
2018-01-15T08:40:42.108Z,61.67
2018-01-15T08:43:09.932Z,49.20
2018-01-15T08:45:37.762Z,60.65
2018-01-15T08:48:05.572Z,55.65
2018-01-15T08:50:33.468Z,54.30
2018-01-15T08:53:01.254Z,51.63
2018-01-15T08:55:29.079Z,59.03
2018-01-15T08:57:56.913Z,54.05
2018-01-15T09:00:24.724Z,42.03
2018-01-15T09:02:52.536Z,45.05
2018-01-15T09:05:20.359Z,51.67
2018-01-15T09:07:48.199Z,44.63
2018-01-15T09:10:16.008Z,45.70
2018-01-15T09:12:43.837Z,55.35
2018-01-15T09:15:11.673Z,49.45
2018-01-15T09:17:39.479Z,48.25
2018-01-15T09:20:07.310Z,52.72
2018-01-15T09:22:35.138Z,50.12
2018-01-15T09:25:02.980Z,47.67
2018-01-15T09:27:31.604Z,42.75
2018-01-15T09:29:59.474Z,38.78
2018-01-15T09:32:27.314Z,45.45
2018-01-15T09:34:55.135Z,45.25
2018-01-15T09:37:22.961Z,41.33
2018-01-15T09:39:50.786Z,45.28
2018-01-15T09:42:18.606Z,40.33
2018-01-15T09:44:46.427Z,41.20
2018-01-15T09:47:14.280Z,47.08
2018-01-15T09:49:42.104Z,43.47
2018-01-15T09:52:09.936Z,42.55
2018-01-15T09:54:37.771Z,32.53
2018-01-15T09:57:05.616Z,37.00
2018-01-15T09:59:33.734Z,39.88
2018-01-15T10:02:01.543Z,40.15
2018-01-15T10:04:29.377Z,44.33
2018-01-15T10:06:57.206Z,44.03
2018-01-15T10:09:25.052Z,41.03
2018-01-15T10:11:52.860Z,41.92
2018-01-15T10:14:20.659Z,39.75
2018-01-15T10:16:48.466Z,53.75
2018-01-15T10:19:16.279Z,41.10
2018-01-15T10:21:44.095Z,38.53
2018-01-15T10:24:11.941Z,45.22
2018-01-15T10:26:39.781Z,43.70
2018-01-15T10:29:07.629Z,40.63
2018-01-15T10:31:35.476Z,43.80
2018-01-15T10:34:03.320Z,35.88
2018-01-15T10:36:31.147Z,40.40
2018-01-15T10:38:58.993Z,36.83
2018-01-15T10:41:26.852Z,42.67
2018-01-15T10:43:54.723Z,44.58
2018-01-15T10:46:22.551Z,42.92
2018-01-15T10:48:50.422Z,41.17
2018-01-15T10:51:18.277Z,44.13
2018-01-15T10:53:46.107Z,44.58
2018-01-15T10:56:13.947Z,42.88
2018-01-15T10:58:41.795Z,42.62
2018-01-15T11:01:15.849Z,41.42
2018-01-15T11:03:43.690Z,41.47
2018-01-15T11:06:11.554Z,43.35
2018-01-15T11:08:39.432Z,40.55
2018-01-15T11:11:07.270Z,43.42
2018-01-15T11:13:35.109Z,38.70
2018-01-15T11:16:02.943Z,44.33
2018-01-15T11:18:30.785Z,42.97
2018-01-15T11:20:58.647Z,40.60
2018-01-15T11:23:26.476Z,43.42
2018-01-15T11:25:54.339Z,39.25
2018-01-15T11:28:22.171Z,45.35
2018-01-15T11:30:49.991Z,40.30
2018-01-15T11:33:17.807Z,37.78
2018-01-15T11:35:45.668Z,42.13
2018-01-15T11:38:13.506Z,37.60
2018-01-15T11:40:41.356Z,44.20
2018-01-15T11:43:09.210Z,38.28
2018-01-15T11:45:37.786Z,39.85
2018-01-15T11:48:05.635Z,38.95
2018-01-15T11:50:33.513Z,41.00
2018-01-15T11:53:01.320Z,42.38
2018-01-15T11:55:29.164Z,28.60
2018-01-15T11:57:57.031Z,36.60
2018-01-15T12:00:24.835Z,38.67
2018-01-15T12:02:52.676Z,44.83
2018-01-15T12:05:20.499Z,39.72
2018-01-15T12:07:48.383Z,38.75
2018-01-15T12:10:16.205Z,43.22
2018-01-15T12:12:44.067Z,45.35
2018-01-15T12:15:11.911Z,44.53
2018-01-15T12:17:39.769Z,38.00
2018-01-15T12:20:07.667Z,39.45
2018-01-15T12:22:35.504Z,36.33
2018-01-15T12:25:03.324Z,45.63
2018-01-15T12:27:31.165Z,49.13
2018-01-15T12:29:59.006Z,47.10
2018-01-15T12:32:26.872Z,30.12
2018-01-15T12:34:54.727Z,42.10
2018-01-15T12:37:22.596Z,45.00
2018-01-15T12:39:50.424Z,42.75
2018-01-15T12:42:18.284Z,42.70
2018-01-15T12:44:46.109Z,39.55
2018-01-15T12:47:13.912Z,43.70
2018-01-15T12:49:41.776Z,43.95
2018-01-15T12:52:09.630Z,39.25
2018-01-15T12:54:37.488Z,44.55
2018-01-15T12:57:05.320Z,41.85
2018-01-15T12:59:33.176Z,45.40
2018-01-15T13:02:01.000Z,38.60
2018-01-15T13:04:28.824Z,41.63
2018-01-15T13:06:56.702Z,40.90
2018-01-15T13:09:24.563Z,39.13
2018-01-15T13:11:52.409Z,37.35
2018-01-15T13:14:20.250Z,40.05
2018-01-15T13:16:48.096Z,38.33
2018-01-15T13:19:15.928Z,41.30
2018-01-15T13:21:43.765Z,45.55
2018-01-15T13:24:11.631Z,47.20
2018-01-15T13:26:39.476Z,45.25
2018-01-15T13:29:07.332Z,48.92
2018-01-15T13:31:35.188Z,41.67
2018-01-15T13:34:03.078Z,40.03
2018-01-15T13:36:30.923Z,40.00
2018-01-15T13:38:58.741Z,42.33
2018-01-15T13:41:26.595Z,38.45
2018-01-15T13:43:54.429Z,40.85
2018-01-15T13:46:22.302Z,42.10
2018-01-15T13:48:50.131Z,45.30
2018-01-15T13:51:17.967Z,39.33
2018-01-15T13:53:45.800Z,45.50
2018-01-15T13:56:13.610Z,39.13
2018-01-15T13:58:41.428Z,39.05
2018-01-15T14:01:09.239Z,41.67
2018-01-15T14:03:37.073Z,42.30
2018-01-15T14:06:04.928Z,47.30
2018-01-15T14:08:32.788Z,40.42
2018-01-15T14:11:00.655Z,44.78
2018-01-15T14:13:28.496Z,65.45
2018-01-15T14:15:56.329Z,42.17
2018-01-15T14:18:24.183Z,40.70
2018-01-15T14:20:52.064Z,42.13
2018-01-15T14:23:19.883Z,42.67
2018-01-15T14:25:47.720Z,39.92
2018-01-15T14:28:15.552Z,45.00
2018-01-15T14:30:43.401Z,39.35
2018-01-15T14:33:11.235Z,47.42
2018-01-15T14:35:39.095Z,49.78
2018-01-15T14:38:06.962Z,42.78
2018-01-15T14:40:34.862Z,45.83
2018-01-15T14:43:02.720Z,43.67
2018-01-15T14:45:30.544Z,46.63
2018-01-15T14:47:58.375Z,49.28
2018-01-15T14:50:26.228Z,42.67
2018-01-15T14:52:54.081Z,44.05
2018-01-15T14:55:21.910Z,58.60
2018-01-15T14:57:49.844Z,40.40
2018-01-15T15:00:17.679Z,42.38
2018-01-15T15:02:45.628Z,47.20
2018-01-15T15:05:13.447Z,44.78
2018-01-15T15:07:41.343Z,50.35
2018-01-15T15:10:09.185Z,41.20
2018-01-15T15:12:37.034Z,36.33
2018-01-15T15:15:04.899Z,43.45
2018-01-15T15:17:32.748Z,42.00
2018-01-15T15:20:00.590Z,44.80
2018-01-15T15:22:28.428Z,43.15
2018-01-15T15:24:56.257Z,45.22
2018-01-15T15:27:24.103Z,43.17
2018-01-15T15:29:51.955Z,44.45
2018-01-15T15:32:19.817Z,46.03
2018-01-15T15:34:47.655Z,41.53
2018-01-15T15:37:15.473Z,41.70
2018-01-15T15:39:43.326Z,42.15
2018-01-15T15:42:11.176Z,37.70
2018-01-15T15:44:39.022Z,45.03
2018-01-15T15:47:06.880Z,37.60
2018-01-15T15:49:34.717Z,54.25
2018-01-15T15:52:02.564Z,37.95
2018-01-15T15:54:30.422Z,35.38
2018-01-15T15:56:58.288Z,43.05
2018-01-15T15:59:26.134Z,34.10
2018-01-15T16:01:53.947Z,36.47
2018-01-15T16:04:21.816Z,41.47
2018-01-15T16:06:49.684Z,35.97
2018-01-15T16:09:17.533Z,39.80
2018-01-15T16:11:45.380Z,36.85
2018-01-15T16:14:13.242Z,40.28
2018-01-15T16:16:41.108Z,45.22
2018-01-15T16:19:08.935Z,43.03
2018-01-15T16:21:36.879Z,36.42
2018-01-15T16:24:04.688Z,38.83
2018-01-15T16:26:32.544Z,36.25
2018-01-15T16:29:00.401Z,43.92
2018-01-15T16:31:28.210Z,39.05
2018-01-15T16:33:56.066Z,42.22
2018-01-15T16:36:24.042Z,38.88
2018-01-15T16:38:51.884Z,42.08
2018-01-15T16:41:19.704Z,34.53
2018-01-15T16:43:47.542Z,36.60
2018-01-15T16:46:15.384Z,36.90
2018-01-15T16:48:43.232Z,38.55
2018-01-15T16:51:11.083Z,43.92
2018-01-15T16:53:38.927Z,39.63
2018-01-15T16:56:06.804Z,38.20
2018-01-15T16:58:34.680Z,46.03
2018-01-15T17:01:02.567Z,47.30
2018-01-15T17:03:30.432Z,41.50
2018-01-15T17:05:58.489Z,42.55
2018-01-15T17:08:26.372Z,50.22
2018-01-15T17:10:54.235Z,40.63
2018-01-15T17:13:22.074Z,38.92
2018-01-15T17:15:49.952Z,42.65
2018-01-15T17:18:17.783Z,47.45
2018-01-15T17:20:45.627Z,38.30
2018-01-15T17:23:13.445Z,34.25
2018-01-15T17:25:41.284Z,49.42
2018-01-15T17:28:09.150Z,32.40
2018-01-15T17:30:36.995Z,42.22
2018-01-15T17:33:04.846Z,48.90
2018-01-15T17:35:32.685Z,50.88
2018-01-15T17:38:00.524Z,46.75
2018-01-15T17:40:28.405Z,39.50
2018-01-15T17:42:56.423Z,56.10
2018-01-15T17:45:24.259Z,45.12
2018-01-15T17:47:52.110Z,39.10
2018-01-15T17:50:20.692Z,37.10
2018-01-15T17:52:48.751Z,42.08
2018-01-15T17:55:16.591Z,43.97
2018-01-15T17:57:44.447Z,33.58
2018-01-15T18:00:12.308Z,39.63
2018-01-15T18:02:40.197Z,43.03
2018-01-15T18:05:08.055Z,40.25
2018-01-15T18:07:35.887Z,47.13
2018-01-15T18:10:03.783Z,33.05
2018-01-15T18:12:31.626Z,44.25
2018-01-15T18:14:59.494Z,47.83
2018-01-15T18:17:27.321Z,46.47
2018-01-15T18:19:55.149Z,42.67
2018-01-15T18:22:22.979Z,40.22
2018-01-15T18:24:50.830Z,47.67
2018-01-15T18:27:18.676Z,47.88
2018-01-15T18:29:46.484Z,46.20
2018-01-15T18:32:14.320Z,34.95
2018-01-15T18:34:42.158Z,42.50
2018-01-15T18:37:10.041Z,44.60
2018-01-15T18:39:37.888Z,38.70
2018-01-15T18:42:05.701Z,46.65
2018-01-15T18:44:33.541Z,44.60
2018-01-15T18:47:01.395Z,37.75
2018-01-15T18:49:29.261Z,45.95
2018-01-15T18:51:57.198Z,43.87
2018-01-15T18:54:25.148Z,38.03
2018-01-15T18:56:52.979Z,46.67
2018-01-15T18:59:20.820Z,36.97
2018-01-15T19:01:48.675Z,34.65
2018-01-15T19:04:16.506Z,41.37
2018-01-15T19:06:44.362Z,40.80
2018-01-15T19:09:12.233Z,40.40
2018-01-15T19:11:40.123Z,44.17
2018-01-15T19:14:08.051Z,39.80
2018-01-15T19:16:35.931Z,40.33
2018-01-15T19:19:03.803Z,47.22
2018-01-15T19:21:31.665Z,38.25
2018-01-15T19:23:59.520Z,43.75
2018-01-15T19:26:27.367Z,34.05
2018-01-15T19:28:55.269Z,37.30
2018-01-15T19:31:23.159Z,42.85
2018-01-15T19:33:51.011Z,39.60
2018-01-15T19:36:22.721Z,36.40
2018-01-15T19:38:56.445Z,38.08
2018-01-15T19:41:28.155Z,37.88
2018-01-15T19:44:02.893Z,40.88
2018-01-15T19:46:36.768Z,37.67
2018-01-15T19:49:23.576Z,38.80
2018-01-15T19:51:57.611Z,34.78
2018-01-15T19:54:31.530Z,38.42
2018-01-15T19:57:05.492Z,33.45
2018-01-15T19:59:39.603Z,27.95
2018-01-15T20:02:13.664Z,32.60
2018-01-15T20:04:47.592Z,34.92
2018-01-15T20:07:21.482Z,36.55
2018-01-15T20:09:55.580Z,32.97
2018-01-15T20:12:23.463Z,32.55
2018-01-15T20:14:51.329Z,33.83
2018-01-15T20:17:19.220Z,36.25
2018-01-15T20:19:47.068Z,29.05
2018-01-15T20:22:14.915Z,33.53
2018-01-15T20:24:42.848Z,35.00
2018-01-15T20:27:10.767Z,36.15
2018-01-15T20:29:38.651Z,38.80
2018-01-15T20:32:06.511Z,37.42
2018-01-15T20:34:34.403Z,40.28
2018-01-15T20:37:02.283Z,31.35
2018-01-15T20:39:30.124Z,38.22
2018-01-15T20:41:57.980Z,42.40
2018-01-15T20:44:25.846Z,42.47
2018-01-15T20:46:53.700Z,38.92
2018-01-15T20:49:21.537Z,38.38
2018-01-15T20:51:49.404Z,44.50
2018-01-15T20:54:17.272Z,42.15
2018-01-15T20:56:45.136Z,42.62
2018-01-15T20:59:13.108Z,39.53
2018-01-15T21:01:41.011Z,37.30
2018-01-15T21:04:08.888Z,43.95
2018-01-15T21:06:37.155Z,46.40
2018-01-15T21:09:05.092Z,48.42
2018-01-15T21:11:32.944Z,40.63
2018-01-15T21:14:00.800Z,31.45
2018-01-15T21:16:28.637Z,43.22
2018-01-15T21:18:56.463Z,40.58
2018-01-15T21:21:24.283Z,42.78
2018-01-15T21:23:52.143Z,45.60
2018-01-15T21:26:19.980Z,44.05
2018-01-15T21:28:48.965Z,40.12
2018-01-15T21:31:17.228Z,38.83
2018-01-15T21:33:45.192Z,40.97
2018-01-15T21:36:13.045Z,46.85
2018-01-15T21:38:40.899Z,39.35
2018-01-15T21:41:08.720Z,53.90
2018-01-15T21:43:36.566Z,41.00
2018-01-15T21:46:04.390Z,48.38
2018-01-15T21:48:32.229Z,49.17
2018-01-15T21:51:00.093Z,47.20
2018-01-15T21:53:27.962Z,47.40
2018-01-15T21:55:55.785Z,47.72
2018-01-15T21:58:23.653Z,51.40
2018-01-15T22:00:51.487Z,49.38
2018-01-15T22:03:19.336Z,48.92
2018-01-15T22:05:47.200Z,50.03
2018-01-15T22:08:15.042Z,44.85
2018-01-15T22:10:42.920Z,54.13
2018-01-15T22:13:10.763Z,53.63
2018-01-15T22:15:38.599Z,48.70
2018-01-15T22:18:06.440Z,54.25
2018-01-15T22:20:34.319Z,55.38
2018-01-15T22:23:02.176Z,44.83
2018-01-15T22:25:30.062Z,54.13
2018-01-15T22:27:57.912Z,46.78
2018-01-15T22:30:25.752Z,55.33
2018-01-15T22:32:54.134Z,47.83
2018-01-15T22:38:16.948Z,48.83
2018-01-15T22:40:44.841Z,49.47
2018-01-15T22:43:12.675Z,41.33
2018-01-15T22:45:40.544Z,49.65
2018-01-15T22:48:08.379Z,47.15
2018-01-15T22:50:36.244Z,46.20
2018-01-15T22:53:04.088Z,43.92
2018-01-15T22:55:31.935Z,48.50
2018-01-15T22:57:59.770Z,43.87
2018-01-15T23:00:27.623Z,34.78
2018-01-15T23:02:55.460Z,35.92
2018-01-15T23:05:23.340Z,33.40
2018-01-15T23:07:51.182Z,39.20
2018-01-15T23:10:19.019Z,37.20
2018-01-15T23:12:46.894Z,27.25
2018-01-15T23:15:14.733Z,31.42
2018-01-15T23:17:42.590Z,32.72
2018-01-15T23:20:10.452Z,34.97
2018-01-15T23:22:38.315Z,25.58
2018-01-15T23:25:06.183Z,32.35
2018-01-15T23:27:34.116Z,32.85
2018-01-15T23:30:01.985Z,35.95
2018-01-15T23:32:29.815Z,25.95
2018-01-15T23:34:57.656Z,34.65
2018-01-15T23:37:25.474Z,29.35
2018-01-15T23:39:53.347Z,29.70
2018-01-15T23:42:21.204Z,32.78
2018-01-15T23:44:49.019Z,27.20
2018-01-15T23:47:17.049Z,26.25
2018-01-15T23:49:44.875Z,33.05
2018-01-15T23:52:12.711Z,33.53
2018-01-15T23:54:40.548Z,34.55
2018-01-15T23:57:08.396Z,20.55
2018-01-15T23:59:36.220Z,28.02
